createdAt,value
2022-11-04T07:56:31.130Z,15.60
2022-11-04T07:58:58.284Z,15.80
2022-11-04T08:01:25.661Z,15.80
2022-11-04T08:03:52.899Z,15.90
2022-11-04T08:06:21.192Z,15.90
2022-11-04T08:08:48.397Z,15.80
2022-11-04T08:11:25.334Z,16.00
2022-11-04T08:13:52.330Z,16.00
2022-11-04T08:16:21.955Z,16.00
2022-11-04T08:18:51.482Z,16.10
2022-11-04T08:21:19.122Z,16.20
2022-11-04T08:23:47.733Z,16.30
2022-11-04T08:26:19.793Z,16.40
2022-11-04T08:28:47.652Z,16.20
2022-11-04T08:31:18.675Z,16.40
2022-11-04T08:33:45.938Z,16.50
2022-11-04T08:36:27.982Z,16.60
2022-11-04T08:38:55.090Z,16.70
2022-11-04T08:41:30.883Z,16.80
2022-11-04T08:44:03.527Z,16.60
2022-11-04T08:46:32.752Z,16.60
2022-11-04T08:48:59.641Z,16.50
2022-11-04T08:51:30.435Z,16.40
2022-11-04T08:53:57.502Z,16.30
2022-11-04T08:56:27.867Z,16.30
2022-11-04T08:58:55.905Z,16.40
2022-11-04T09:01:22.852Z,16.30
2022-11-04T09:03:53.233Z,16.20
2022-11-04T09:06:23.619Z,16.00
2022-11-04T09:08:51.304Z,15.90
2022-11-04T09:11:18.631Z,16.00
2022-11-04T09:13:45.669Z,15.80
2022-11-04T09:16:14.343Z,15.80
2022-11-04T09:18:41.892Z,15.80
2022-11-04T09:21:10.561Z,15.60
2022-11-04T09:23:38.261Z,15.60
2022-11-04T09:26:09.599Z,15.70
2022-11-04T09:28:36.741Z,15.70
2022-11-04T09:31:06.733Z,15.70
2022-11-04T09:33:33.623Z,15.80
2022-11-04T09:36:00.728Z,15.80
2022-11-04T09:38:27.644Z,15.90
2022-11-04T09:40:54.842Z,15.80
2022-11-04T09:44:10.615Z,15.90
2022-11-04T09:46:38.762Z,16.00
2022-11-04T09:49:10.666Z,15.90
2022-11-04T09:51:55.546Z,15.80
2022-11-04T09:54:24.251Z,15.80
2022-11-04T09:56:53.215Z,15.90
2022-11-04T09:59:25.313Z,16.00
2022-11-04T10:02:20.752Z,16.00
2022-11-04T10:04:57.618Z,16.00
2022-11-04T10:07:57.600Z,16.00
2022-11-04T10:10:30.378Z,16.10
2022-11-04T10:13:29.843Z,16.00
2022-11-04T10:16:18.208Z,15.90
2022-11-04T10:18:50.246Z,15.90
2022-11-04T10:21:43.609Z,15.90
2022-11-04T10:24:13.562Z,15.90
2022-11-04T10:26:46.317Z,16.00
2022-11-04T10:29:24.083Z,15.90
2022-11-04T10:31:53.551Z,15.90
2022-11-04T10:34:37.897Z,15.90
2022-11-04T10:37:08.722Z,15.90
2022-11-04T10:39:39.389Z,16.10
2022-11-04T10:42:09.048Z,16.20
2022-11-04T10:44:37.532Z,16.20
2022-11-04T10:47:32.140Z,16.10
2022-11-04T10:50:31.632Z,16.10
2022-11-04T10:53:22.899Z,16.10
2022-11-04T10:56:12.233Z,16.30
2022-11-04T10:58:46.264Z,16.20
2022-11-04T11:01:32.435Z,16.40
2022-11-04T11:04:00.512Z,16.50
2022-11-04T11:06:34.841Z,16.50
2022-11-04T11:09:29.580Z,16.60
2022-11-04T11:12:00.898Z,16.60
2022-11-04T11:14:30.621Z,16.70
2022-11-04T11:17:19.464Z,16.80
2022-11-04T11:19:53.345Z,16.80
2022-11-04T11:22:39.764Z,16.80
2022-11-04T11:25:25.056Z,16.60
2022-11-04T11:28:07.882Z,16.50
2022-11-04T11:30:44.106Z,16.50
2022-11-04T11:33:34.381Z,16.60
2022-11-04T11:36:07.559Z,16.60
2022-11-04T11:38:34.761Z,16.70
2022-11-04T11:41:24.307Z,16.80
2022-11-04T11:43:54.285Z,16.80
2022-11-04T11:46:26.299Z,16.80
2022-11-04T11:48:57.728Z,16.80
2022-11-04T11:51:34.247Z,16.80
2022-11-04T11:54:35.138Z,16.80
2022-11-04T11:57:16.037Z,16.80
2022-11-04T12:02:55.540Z,17.00
2022-11-04T12:11:33.766Z,17.10
2022-11-04T12:14:05.931Z,17.10
2022-11-04T12:16:47.130Z,17.10
2022-11-04T12:19:29.527Z,17.10
2022-11-04T12:22:07.375Z,17.10
2022-11-04T12:25:09.337Z,17.10
2022-11-04T12:28:10.474Z,17.20
2022-11-04T12:31:09.940Z,17.30
2022-11-04T12:33:53.838Z,17.30
2022-11-04T12:36:25.905Z,17.30
2022-11-04T12:38:55.731Z,17.30
2022-11-04T12:45:03.919Z,17.40
2022-11-04T12:47:45.444Z,17.50
2022-11-04T12:50:23.874Z,17.50
2022-11-04T12:53:24.759Z,17.50
2022-11-04T12:56:12.087Z,17.50
2022-11-04T12:58:50.687Z,17.60
2022-11-04T13:01:24.659Z,17.60
2022-11-04T13:04:04.075Z,17.60
2022-11-04T13:06:48.167Z,17.60
2022-11-04T13:09:24.785Z,17.60
2022-11-04T13:11:55.917Z,17.60
2022-11-04T13:14:33.164Z,17.70
2022-11-04T13:17:05.512Z,17.60
2022-11-04T13:19:52.060Z,17.60
2022-11-04T13:22:32.033Z,17.60
2022-11-04T13:25:06.927Z,17.60
2022-11-04T13:27:45.718Z,17.60
2022-11-04T13:30:18.712Z,17.60
2022-11-04T13:33:00.171Z,17.60
2022-11-04T13:35:56.491Z,17.60
2022-11-04T13:38:48.859Z,17.60
2022-11-04T13:41:38.607Z,17.60
2022-11-04T13:44:32.007Z,17.60
2022-11-04T13:47:03.030Z,17.60
2022-11-04T13:49:33.881Z,17.60
2022-11-04T13:52:13.495Z,17.60
2022-11-04T13:54:46.894Z,17.60
2022-11-04T13:57:26.717Z,17.60
2022-11-04T14:00:27.037Z,17.60
2022-11-04T14:02:58.199Z,17.60
2022-11-04T14:05:36.116Z,17.60
2022-11-04T14:08:02.878Z,17.60
2022-11-04T14:10:48.516Z,17.60
2022-11-04T14:13:30.802Z,17.60
2022-11-04T14:16:06.555Z,17.60
2022-11-04T14:18:36.033Z,17.60
2022-11-04T14:21:16.356Z,17.70
2022-11-04T14:23:46.149Z,17.60
2022-11-04T14:26:15.216Z,17.70
2022-11-04T14:28:46.689Z,17.70
2022-11-04T14:31:17.648Z,17.70
2022-11-04T14:33:58.136Z,17.60
2022-11-04T14:36:46.902Z,17.60
2022-11-04T14:39:13.914Z,17.60
2022-11-04T14:41:40.655Z,17.70
2022-11-04T14:44:31.925Z,17.70
2022-11-04T14:47:22.157Z,17.60
2022-11-04T14:50:00.059Z,17.60
2022-11-04T14:52:49.999Z,17.60
2022-11-04T14:55:30.434Z,17.60
2022-11-04T14:58:13.823Z,17.70
2022-11-04T15:01:02.014Z,17.60
2022-11-04T15:04:09.919Z,17.60
2022-11-04T15:06:40.657Z,17.60
2022-11-04T15:09:39.577Z,17.60
2022-11-04T15:12:40.491Z,17.50
2022-11-04T15:15:33.567Z,17.50
2022-11-04T15:18:06.854Z,17.50
2022-11-04T15:20:38.340Z,17.50
2022-11-04T15:23:10.648Z,17.50
2022-11-04T15:25:43.656Z,17.40
2022-11-04T15:28:35.735Z,17.40
2022-11-04T15:31:07.010Z,17.30
2022-11-04T15:33:43.584Z,17.30
2022-11-04T15:36:21.845Z,17.20
2022-11-04T15:39:02.550Z,17.20
2022-11-04T15:41:49.687Z,17.20
2022-11-04T15:44:16.483Z,17.10
2022-11-04T15:46:52.387Z,17.10
2022-11-04T15:49:30.104Z,17.00
2022-11-04T15:52:04.545Z,17.00
2022-11-04T15:54:38.492Z,16.90
2022-11-04T15:57:16.387Z,16.80
2022-11-04T15:59:54.910Z,16.70
2022-11-04T16:02:33.898Z,16.40
2022-11-04T16:05:15.493Z,16.30
2022-11-04T16:07:43.143Z,16.40
2022-11-04T16:10:22.061Z,16.30
2022-11-04T16:12:57.943Z,16.30
2022-11-04T16:15:40.001Z,16.30
2022-11-04T16:18:20.790Z,16.20
2022-11-04T16:20:48.904Z,16.20
2022-11-04T16:23:22.714Z,16.20
2022-11-04T16:26:05.817Z,16.20
2022-11-04T16:28:37.463Z,16.10
2022-11-04T16:31:23.997Z,16.00
2022-11-04T16:33:54.408Z,15.90
2022-11-04T16:36:27.567Z,15.80
2022-11-04T16:39:04.737Z,15.80
2022-11-04T16:41:36.362Z,15.70
2022-11-04T16:44:04.800Z,15.60
2022-11-04T16:46:36.585Z,15.50
2022-11-04T16:49:03.427Z,15.60
2022-11-04T16:51:33.481Z,15.60
2022-11-04T16:54:00.322Z,15.50
2022-11-04T16:56:27.363Z,15.50
2022-11-04T16:58:54.143Z,15.50
2022-11-04T17:01:21.446Z,15.40
2022-11-04T17:03:48.480Z,15.30
2022-11-04T17:06:17.338Z,15.20
2022-11-04T17:08:44.512Z,15.00
2022-11-04T17:11:12.454Z,15.00
2022-11-04T17:13:39.693Z,15.10
2022-11-04T17:16:10.094Z,15.10
2022-11-04T17:18:37.101Z,15.20
2022-11-04T17:21:09.048Z,15.00
2022-11-04T17:23:36.027Z,14.80
2022-11-04T17:26:03.262Z,14.70
2022-11-04T17:28:31.574Z,14.70
2022-11-04T17:30:58.465Z,14.80
2022-11-04T17:33:25.360Z,14.80
2022-11-04T17:35:52.285Z,14.80
2022-11-04T17:38:19.441Z,14.70
2022-11-04T17:41:06.739Z,14.50
2022-11-04T17:43:52.141Z,14.50
2022-11-04T17:46:34.409Z,14.50
2022-11-04T17:49:03.253Z,14.40
2022-11-04T17:51:31.070Z,14.40
2022-11-04T17:53:58.078Z,14.50
2022-11-04T17:56:25.394Z,14.50
2022-11-04T17:58:53.428Z,14.40
2022-11-04T18:01:22.508Z,14.30
2022-11-04T18:03:51.959Z,14.10
2022-11-04T18:06:19.004Z,13.90
2022-11-04T18:08:46.135Z,13.80
2022-11-04T18:11:33.941Z,13.80
2022-11-04T18:14:01.256Z,13.80
2022-11-04T18:16:28.174Z,13.80
2022-11-04T18:18:57.870Z,13.80
2022-11-04T18:21:24.866Z,13.80
2022-11-04T18:23:51.726Z,13.90
2022-11-04T18:26:19.072Z,14.10
2022-11-04T18:28:46.029Z,14.00
2022-11-04T18:31:20.097Z,13.90
2022-11-04T18:33:46.934Z,13.90
2022-11-04T18:36:13.714Z,13.70
2022-11-04T18:38:40.644Z,13.80
2022-11-04T18:41:07.573Z,13.80
2022-11-04T18:43:34.443Z,13.70
2022-11-04T18:46:10.227Z,13.60
2022-11-04T18:48:37.475Z,13.50
2022-11-04T18:51:06.160Z,13.40
2022-11-04T18:53:33.053Z,13.40
2022-11-04T18:56:08.728Z,13.50
2022-11-04T18:58:38.338Z,13.40
2022-11-04T19:01:09.618Z,13.40
2022-11-04T19:03:37.113Z,13.50
2022-11-04T19:06:13.303Z,13.60
2022-11-04T19:08:46.675Z,13.70
2022-11-04T19:11:23.877Z,13.90
2022-11-04T19:14:01.061Z,14.00
2022-11-04T19:16:31.337Z,14.00
2022-11-04T19:19:03.294Z,13.90
2022-11-04T19:21:30.499Z,13.80
2022-11-04T19:23:59.890Z,13.80
2022-11-04T19:26:32.844Z,13.70
2022-11-04T19:29:01.043Z,13.60
2022-11-04T19:31:29.774Z,13.50
2022-11-04T19:34:04.116Z,13.50
2022-11-04T19:36:33.442Z,13.50
2022-11-04T19:39:04.100Z,13.50
2022-11-04T19:41:49.807Z,13.50
2022-11-04T19:44:19.036Z,13.40
2022-11-04T19:46:46.831Z,13.20
2022-11-04T19:49:14.058Z,13.20
2022-11-04T19:51:41.422Z,13.20
2022-11-04T19:54:09.539Z,13.30
2022-11-04T19:56:37.148Z,13.20
2022-11-04T19:59:06.775Z,13.20
2022-11-04T20:01:35.306Z,13.10
2022-11-04T20:04:03.736Z,13.10
2022-11-04T20:06:32.249Z,13.20
2022-11-04T20:09:04.503Z,13.10
2022-11-04T20:11:35.554Z,13.00
2022-11-04T20:14:07.821Z,12.80
2022-11-04T20:16:39.455Z,12.80
2022-11-04T20:19:09.623Z,12.70
2022-11-04T20:21:37.226Z,12.80
2022-11-04T20:24:07.174Z,12.80
2022-11-04T20:26:36.002Z,12.80
2022-11-04T20:29:04.947Z,12.80
2022-11-04T20:31:36.246Z,12.70
2022-11-04T20:34:07.885Z,12.70
2022-11-04T20:36:36.087Z,12.50
2022-11-04T20:39:05.746Z,12.60
2022-11-04T20:41:35.651Z,12.80
2022-11-04T20:44:02.884Z,12.80
2022-11-04T20:46:35.082Z,12.90
2022-11-04T20:49:04.209Z,12.80
2022-11-04T20:51:33.588Z,12.80
2022-11-04T20:54:03.239Z,12.80
2022-11-04T20:56:32.615Z,12.90
2022-11-04T20:59:00.615Z,12.80
2022-11-04T21:01:36.108Z,12.90
2022-11-04T21:04:11.717Z,12.90
2022-11-04T21:06:39.314Z,12.90
2022-11-04T21:09:09.256Z,12.70
2022-11-04T21:11:36.445Z,12.60
2022-11-04T21:14:04.360Z,12.70
2022-11-04T21:16:31.342Z,12.80
2022-11-04T21:18:58.209Z,12.70
2022-11-04T21:21:27.927Z,12.70
2022-11-04T21:23:59.213Z,12.70
2022-11-04T21:26:28.774Z,12.70
2022-11-04T21:29:01.533Z,12.80
2022-11-04T21:31:30.111Z,12.70
2022-11-04T21:33:57.622Z,12.80
2022-11-04T21:36:24.493Z,12.80
2022-11-04T21:38:51.396Z,12.70
2022-11-04T21:41:24.462Z,12.70
2022-11-04T21:43:59.113Z,12.80
2022-11-04T21:46:27.405Z,12.80
2022-11-04T21:48:55.639Z,12.70
2022-11-04T21:51:31.170Z,12.50
2022-11-04T21:53:59.236Z,12.50
2022-11-04T21:56:33.425Z,12.70
2022-11-04T21:59:02.226Z,12.70
2022-11-04T22:01:30.696Z,12.70
2022-11-04T22:03:59.928Z,12.80
2022-11-04T22:06:33.503Z,12.60
2022-11-04T22:09:02.474Z,12.40
2022-11-04T22:11:31.349Z,12.30
2022-11-04T23:00:46.566Z,11.50
2022-11-04T23:03:13.733Z,11.40
2022-11-04T23:05:40.827Z,11.50
2022-11-04T23:08:07.597Z,11.70
2022-11-04T23:10:53.115Z,11.70
2022-11-04T23:13:38.521Z,11.70
2022-11-04T23:16:24.213Z,11.40
2022-11-04T23:18:51.746Z,11.40
2022-11-04T23:21:39.591Z,11.50
2022-11-04T23:24:25.471Z,11.50
2022-11-04T23:26:52.392Z,11.60
2022-11-04T23:29:38.276Z,11.60
2022-11-04T23:32:05.248Z,11.50
2022-11-04T23:34:50.936Z,11.20
2022-11-04T23:37:17.874Z,11.30
